createdAt,value
2017-08-01T00:02:17.027Z,7.07
2017-08-01T00:04:45.379Z,8.27
2017-08-01T00:07:13.736Z,6.93
2017-08-01T00:09:42.700Z,8.60
2017-08-01T00:12:11.474Z,9.53
2017-08-01T00:14:39.843Z,7.53
2017-08-01T00:17:08.312Z,8.17
2017-08-01T00:19:36.867Z,7.70
2017-08-01T00:22:05.236Z,8.47
2017-08-01T00:24:33.613Z,8.13
2017-08-01T00:27:02.009Z,7.70
2017-08-01T00:29:30.370Z,7.40
2017-08-01T00:31:58.739Z,7.50
2017-08-01T00:34:27.495Z,8.00
2017-08-01T00:36:56.082Z,7.10
2017-08-01T00:39:24.433Z,6.90
2017-08-01T00:41:52.798Z,7.57
2017-08-01T00:44:21.173Z,7.97
2017-08-01T00:46:49.544Z,8.17
2017-08-01T00:49:17.964Z,8.43
2017-08-01T00:51:46.328Z,8.07
2017-08-01T00:54:14.709Z,8.40
2017-08-01T00:56:43.118Z,7.40
2017-08-01T00:59:11.484Z,7.17
2017-08-01T01:01:39.859Z,7.53
2017-08-01T01:04:08.331Z,7.30
2017-08-01T01:06:36.803Z,7.80
2017-08-01T01:09:05.168Z,7.83
2017-08-01T01:11:33.536Z,8.17
2017-08-01T01:14:01.896Z,7.00
2017-08-01T01:16:30.898Z,7.23
2017-08-01T01:18:59.748Z,8.40
2017-08-01T01:21:28.113Z,8.90
2017-08-01T01:23:56.472Z,8.17
2017-08-01T01:26:24.831Z,7.47
2017-08-01T01:28:53.592Z,7.93
2017-08-01T01:31:22.001Z,8.30
2017-08-01T01:33:50.768Z,7.67
2017-08-01T01:36:19.515Z,8.50
2017-08-01T01:38:47.922Z,7.83
2017-08-01T01:41:16.278Z,8.00
2017-08-01T01:43:44.657Z,8.00
2017-08-01T01:46:13.017Z,8.40
2017-08-01T01:48:41.640Z,7.80
2017-08-01T01:51:09.993Z,8.63
2017-08-01T01:53:38.356Z,8.23
2017-08-01T01:56:06.768Z,7.80
2017-08-01T01:58:35.130Z,8.93
2017-08-01T02:01:03.505Z,9.07
2017-08-01T02:03:31.863Z,7.93
2017-08-01T02:06:00.956Z,8.47
2017-08-01T02:08:29.313Z,8.77
2017-08-01T02:10:58.073Z,8.37
2017-08-01T02:13:26.443Z,8.80
2017-08-01T02:15:54.928Z,8.27
2017-08-01T02:18:23.297Z,8.70
2017-08-01T02:20:51.650Z,9.13
2017-08-01T02:23:20.024Z,9.73
2017-08-01T02:25:48.385Z,9.50
2017-08-01T02:28:17.148Z,8.33
2017-08-01T02:30:45.514Z,9.00
2017-08-01T02:33:13.883Z,8.73
2017-08-01T02:35:42.246Z,8.53
2017-08-01T02:38:10.624Z,8.13
2017-08-01T02:40:38.979Z,8.50
2017-08-01T02:43:07.758Z,8.80
2017-08-01T02:45:36.517Z,7.97
2017-08-01T02:48:04.900Z,9.23
2017-08-01T02:50:33.258Z,8.37
2017-08-01T02:53:01.859Z,8.23
2017-08-01T02:55:30.232Z,8.97
2017-08-01T02:57:58.612Z,9.03
2017-08-01T03:00:26.981Z,8.70
2017-08-01T03:02:55.381Z,8.93
2017-08-01T03:05:23.756Z,8.60
2017-08-01T03:07:52.116Z,8.30
2017-08-01T03:10:20.496Z,9.00
2017-08-01T03:12:48.863Z,9.53
2017-08-01T03:15:17.341Z,9.30
2017-08-01T03:17:45.710Z,10.10
2017-08-01T03:20:14.433Z,9.80
2017-08-01T03:22:42.799Z,11.40
2017-08-01T03:25:11.153Z,10.20
2017-08-01T03:27:39.553Z,11.33
2017-08-01T03:30:07.921Z,11.70
2017-08-01T03:32:36.395Z,12.70
2017-08-01T03:35:04.760Z,11.10
2017-08-01T03:37:33.128Z,13.80
2017-08-01T03:40:01.889Z,13.57
2017-08-01T03:42:30.253Z,11.70
2017-08-01T03:44:58.615Z,11.40
2017-08-01T03:47:27.326Z,12.40
2017-08-01T03:49:55.717Z,12.20
2017-08-01T03:52:24.199Z,12.47
2017-08-01T03:54:52.568Z,11.90
2017-08-01T03:57:20.919Z,12.87
2017-08-01T03:59:49.295Z,11.70
2017-08-01T04:02:17.646Z,12.63
2017-08-01T04:04:46.411Z,12.10
2017-08-01T04:07:14.777Z,12.13
2017-08-01T04:09:43.161Z,11.83
2017-08-01T04:12:11.531Z,11.77
2017-08-01T04:14:39.918Z,12.67
2017-08-01T04:17:08.294Z,12.93
2017-08-01T04:19:37.086Z,12.00
2017-08-01T04:22:05.533Z,12.47
2017-08-01T04:24:33.905Z,12.00
2017-08-01T04:27:02.278Z,12.57
2017-08-01T04:29:30.650Z,13.07
2017-08-01T04:31:59.049Z,14.93
2017-08-01T04:34:27.420Z,15.43
2017-08-01T04:36:56.083Z,14.27
2017-08-01T04:39:24.853Z,14.13
2017-08-01T04:41:53.228Z,14.70
2017-08-01T04:44:21.581Z,14.77
2017-08-01T04:46:49.951Z,15.00
2017-08-01T04:49:18.348Z,11.50
2017-08-01T04:51:46.937Z,10.10
2017-08-01T06:18:06.833Z,29.10
2017-08-01T06:20:35.239Z,21.90
2017-08-01T06:23:03.668Z,19.80
2017-08-01T06:25:32.063Z,18.03
2017-08-01T06:28:00.433Z,29.00
2017-08-01T06:30:28.810Z,26.77
2017-08-01T06:32:57.176Z,22.83
2017-08-01T06:35:25.874Z,23.07
2017-08-01T06:37:54.489Z,23.57
2017-08-01T06:40:23.244Z,24.13
2017-08-01T06:42:51.611Z,22.90
2017-08-01T06:45:19.996Z,27.37
2017-08-01T06:47:48.377Z,25.87
2017-08-01T06:50:16.769Z,28.17
2017-08-01T06:52:45.153Z,26.80
2017-08-01T06:55:13.515Z,24.60
2017-08-01T06:57:41.997Z,26.03
2017-08-01T07:00:10.856Z,23.80
2017-08-01T07:02:39.245Z,22.10
